createdAt,value
2022-10-20T00:01:28.241Z,101369.00
2022-10-20T00:03:56.225Z,101361.47
2022-10-20T00:06:32.454Z,101369.81
2022-10-20T00:09:02.648Z,101375.88
2022-10-20T00:11:43.172Z,101376.88
2022-10-20T00:14:10.414Z,101377.72
2022-10-20T00:16:39.207Z,101380.19
2022-10-20T00:19:06.539Z,101378.50
2022-10-20T00:21:33.532Z,101377.06
2022-10-20T00:24:02.336Z,101384.78
2022-10-20T00:26:31.646Z,101377.25
2022-10-20T00:28:58.794Z,101381.84
2022-10-20T00:31:26.395Z,101378.31
2022-10-20T00:33:53.639Z,101380.81
2022-10-20T00:36:23.533Z,101375.44
2022-10-20T00:38:51.611Z,101373.88
2022-10-20T00:41:21.407Z,101373.19
2022-10-20T00:43:59.416Z,101380.13
2022-10-20T00:46:44.616Z,101380.59
2022-10-20T00:49:25.996Z,101383.41
2022-10-20T00:51:54.803Z,101379.34
2022-10-20T00:54:26.911Z,101378.50
2022-10-20T00:56:56.680Z,101376.16
2022-10-20T00:59:33.074Z,101371.63
2022-10-20T01:02:02.475Z,101369.13
2022-10-20T01:04:31.988Z,101372.13
2022-10-20T01:06:59.293Z,101377.09
2022-10-20T01:09:26.778Z,101380.63
2022-10-20T01:12:11.482Z,101378.69
2022-10-20T01:15:13.429Z,101378.34
2022-10-20T01:18:02.176Z,101375.88
2022-10-20T01:21:05.073Z,101382.72
2022-10-20T01:24:11.741Z,101384.28
2022-10-20T01:27:09.393Z,101379.41
2022-10-20T01:30:21.378Z,101385.19
2022-10-20T01:33:05.300Z,101381.34
2022-10-20T01:36:00.306Z,101382.81
2022-10-20T01:38:39.225Z,101388.50
2022-10-20T01:41:34.171Z,101391.47
2022-10-20T01:44:10.749Z,101376.56
2022-10-20T01:46:41.258Z,101391.69
2022-10-20T01:49:09.587Z,101387.94
2022-10-20T01:51:36.595Z,101374.41
2022-10-20T01:54:03.752Z,101375.44
2022-10-20T01:56:47.291Z,101367.16
2022-10-20T01:59:39.116Z,101379.09
2022-10-20T02:02:16.951Z,101369.53
2022-10-20T02:05:24.632Z,101376.13
2022-10-20T02:08:00.497Z,101368.16
2022-10-20T02:10:36.492Z,101367.00
2022-10-20T02:13:07.316Z,101373.16
2022-10-20T02:15:39.504Z,101366.09
2022-10-20T02:18:09.355Z,101367.69
2022-10-20T02:20:36.325Z,101368.63
2022-10-20T02:23:06.492Z,101366.81
2022-10-20T02:25:34.701Z,101352.94
2022-10-20T02:28:04.596Z,101365.88
2022-10-20T02:30:32.221Z,101355.06
2022-10-20T02:32:59.161Z,101357.81
2022-10-20T02:35:33.344Z,101361.22
2022-10-20T02:38:01.152Z,101365.78
2022-10-20T02:40:28.540Z,101363.16
2022-10-20T02:42:55.427Z,101362.59
2022-10-20T02:45:22.461Z,101362.47
2022-10-20T02:47:49.342Z,101359.84
2022-10-20T02:50:17.170Z,101366.81
2022-10-20T02:52:44.109Z,101373.28
2022-10-20T02:55:11.142Z,101367.59
2022-10-20T02:57:38.618Z,101361.34
2022-10-20T03:00:07.800Z,101367.13
2022-10-20T03:02:34.937Z,101361.25
2022-10-20T03:05:01.968Z,101363.84
2022-10-20T03:07:28.940Z,101371.56
2022-10-20T03:09:55.883Z,101370.44
2022-10-20T03:12:22.865Z,101370.22
2022-10-20T03:14:49.863Z,101375.31
2022-10-20T03:17:16.843Z,101369.03
2022-10-20T03:19:43.873Z,101380.31
2022-10-20T03:22:10.947Z,101382.59
2022-10-20T03:24:37.911Z,101378.38
2022-10-20T03:27:04.907Z,101373.13
2022-10-20T03:29:31.930Z,101374.41
2022-10-20T03:31:58.929Z,101378.38
2022-10-20T03:34:25.938Z,101377.03
2022-10-20T03:36:53.156Z,101382.13
2022-10-20T03:39:20.240Z,101387.84
2022-10-20T03:41:47.273Z,101384.53
2022-10-20T03:44:14.301Z,101394.38
2022-10-20T03:46:41.251Z,101401.03
2022-10-20T03:49:08.227Z,101394.69
2022-10-20T03:51:35.222Z,101392.41
2022-10-20T03:54:02.132Z,101390.25
2022-10-20T03:56:29.035Z,101392.19
2022-10-20T03:58:56.001Z,101401.38
2022-10-20T04:01:31.188Z,101401.94
2022-10-20T04:03:58.476Z,101401.84
2022-10-20T04:06:25.699Z,101404.91
2022-10-20T04:08:52.664Z,101403.38
2022-10-20T04:11:19.654Z,101402.53
2022-10-20T04:13:46.673Z,101409.94
2022-10-20T04:16:13.732Z,101419.16
2022-10-20T04:18:40.740Z,101424.22
2022-10-20T04:21:07.692Z,101418.50
2022-10-20T04:23:34.654Z,101415.03
2022-10-20T04:26:09.742Z,101424.41
2022-10-20T04:28:36.854Z,101408.88
2022-10-20T04:31:04.669Z,101415.81
2022-10-20T04:33:31.818Z,101419.22
2022-10-20T04:36:06.010Z,101408.00
2022-10-20T04:38:34.676Z,101414.94
2022-10-20T04:41:04.483Z,101413.78
2022-10-20T04:43:34.664Z,101416.19
2022-10-20T04:46:07.294Z,101409.59
2022-10-20T04:48:37.204Z,101418.03
2022-10-20T04:51:10.524Z,101414.53
2022-10-20T04:53:37.908Z,101420.16
2022-10-20T04:56:07.332Z,101425.19
2022-10-20T04:58:35.374Z,101418.69
2022-10-20T05:01:07.050Z,101418.13
2022-10-20T05:03:35.156Z,101409.66
2022-10-20T05:06:27.935Z,101419.84
2022-10-20T05:08:58.983Z,101415.78
2022-10-20T05:11:28.702Z,101413.28
2022-10-20T05:13:56.250Z,101423.44
2022-10-20T05:16:24.190Z,101427.69
2022-10-20T05:18:54.355Z,101432.06
2022-10-20T05:21:26.608Z,101430.00
2022-10-20T05:24:04.075Z,101435.47
2022-10-20T05:26:34.955Z,101436.41
2022-10-20T05:29:08.142Z,101441.16
2022-10-20T05:31:43.910Z,101438.00
2022-10-20T05:34:12.052Z,101444.44
2022-10-20T05:36:39.127Z,101444.47
2022-10-20T05:39:06.398Z,101451.19
2022-10-20T05:41:37.917Z,101456.00
2022-10-20T05:44:09.014Z,101454.34
2022-10-20T05:46:41.312Z,101464.34
2022-10-20T05:49:14.310Z,101458.22
2022-10-20T05:51:41.671Z,101453.69
2022-10-20T05:54:12.354Z,101476.06
2022-10-20T05:56:39.735Z,101460.53
2022-10-20T05:59:07.000Z,101465.75
2022-10-20T06:01:48.300Z,101464.38
2022-10-20T06:04:24.795Z,101467.81
2022-10-20T06:06:53.160Z,101472.09
2022-10-20T06:09:21.039Z,101469.91
2022-10-20T06:11:48.614Z,101480.09
2022-10-20T06:14:15.949Z,101476.09
2022-10-20T06:16:43.608Z,101468.44
2022-10-20T06:19:10.992Z,101477.69
2022-10-20T06:21:38.650Z,101478.25
2022-10-20T06:24:06.995Z,101484.28
2022-10-20T06:26:38.900Z,101470.41
2022-10-20T06:29:10.997Z,101478.34
2022-10-20T06:31:41.698Z,101485.50
2022-10-20T06:34:13.394Z,101479.00
2022-10-20T06:36:42.039Z,101492.19
2022-10-20T06:39:14.373Z,101489.88
2022-10-20T06:41:41.635Z,101490.41
2022-10-20T06:44:08.659Z,101492.56
2022-10-20T06:46:37.132Z,101495.25
2022-10-20T06:49:07.092Z,101503.16
2022-10-20T06:51:36.076Z,101502.16
2022-10-20T06:54:03.862Z,101503.72
2022-10-20T06:56:34.108Z,101499.31
2022-10-20T06:59:02.202Z,101499.06
2022-10-20T07:01:39.698Z,101504.63
2022-10-20T07:04:11.388Z,101496.59
2022-10-20T07:06:41.424Z,101502.53
2022-10-20T07:09:14.051Z,101494.19
2022-10-20T07:11:42.040Z,101500.88
2022-10-20T07:14:12.713Z,101511.59
2022-10-20T07:16:39.741Z,101497.69
2022-10-20T07:19:06.719Z,101498.91
2022-10-20T07:21:38.338Z,101511.31
2022-10-20T07:24:09.254Z,101517.84
2022-10-20T07:26:40.966Z,101502.50
2022-10-20T07:29:08.846Z,101521.25
2022-10-20T07:31:45.555Z,101518.69
2022-10-20T07:34:30.988Z,101513.47
2022-10-20T07:36:58.229Z,101526.97
2022-10-20T07:39:26.187Z,101527.09
2022-10-20T07:41:53.525Z,101518.06
2022-10-20T07:44:20.765Z,101524.31
2022-10-20T07:46:47.769Z,101521.41
2022-10-20T07:52:01.659Z,101519.28
2022-10-20T07:54:28.592Z,101516.84
2022-10-20T07:56:55.526Z,101510.47
2022-10-20T07:59:22.567Z,101517.72
2022-10-20T08:01:49.557Z,101511.00
2022-10-20T08:04:16.609Z,101522.06
2022-10-20T08:06:43.513Z,101519.09
2022-10-20T08:09:10.573Z,101527.34
2022-10-20T08:11:37.505Z,101522.75
2022-10-20T08:14:05.024Z,101523.69
2022-10-20T08:16:37.277Z,101521.28
2022-10-20T08:21:47.983Z,101522.44
2022-10-20T08:24:14.936Z,101517.75
2022-10-20T08:26:42.025Z,101521.03
2022-10-20T08:29:09.964Z,101519.94
2022-10-20T08:31:36.897Z,101528.66
2022-10-20T08:34:03.913Z,101520.44
2022-10-20T08:36:31.074Z,101522.66
2022-10-20T08:39:03.614Z,101526.34
2022-10-20T08:44:35.209Z,101527.16
2022-10-20T08:47:13.292Z,101528.41
2022-10-20T08:49:40.354Z,101526.28
2022-10-20T08:52:14.962Z,101526.44
2022-10-20T08:54:42.217Z,101524.59
2022-10-20T08:57:33.331Z,101531.59
2022-10-20T09:00:22.527Z,101519.31
2022-10-20T09:02:50.804Z,101528.19
2022-10-20T09:05:32.000Z,101525.16
2022-10-20T09:07:59.071Z,101516.78
2022-10-20T09:10:44.634Z,101519.53
2022-10-20T09:13:28.102Z,101523.28
2022-10-20T09:16:41.957Z,101525.13
2022-10-20T09:19:23.389Z,101522.13
2022-10-20T09:21:54.850Z,101516.94
2022-10-20T09:24:24.374Z,101520.84
2022-10-20T09:26:59.243Z,101525.81
2022-10-20T09:29:38.909Z,101520.97
2022-10-20T09:35:30.244Z,101523.78
2022-10-20T09:37:59.265Z,101521.69
2022-10-20T09:40:27.874Z,101522.84
2022-10-20T09:43:02.288Z,101517.13
2022-10-20T09:45:32.539Z,101512.75
2022-10-20T09:48:15.254Z,101519.50
2022-10-20T09:50:51.409Z,101517.38
2022-10-20T09:53:23.987Z,101521.91
2022-10-20T09:55:52.247Z,101520.56
2022-10-20T09:58:31.070Z,101514.56
2022-10-20T10:01:17.330Z,101515.66
2022-10-20T10:03:48.155Z,101506.41
2022-10-20T10:06:38.876Z,101502.84
2022-10-20T10:09:35.235Z,101505.34
2022-10-20T10:12:10.869Z,101505.13
2022-10-20T10:14:39.101Z,101500.28
2022-10-20T10:17:06.061Z,101493.66
2022-10-20T10:19:34.380Z,101501.47
2022-10-20T10:22:03.640Z,101491.94
2022-10-20T10:24:46.556Z,101503.91
2022-10-20T10:27:25.547Z,101494.44
2022-10-20T10:29:54.420Z,101490.84
2022-10-20T10:32:29.485Z,101490.78
2022-10-20T10:35:29.261Z,101485.34
2022-10-20T10:37:58.185Z,101483.31
2022-10-20T10:41:09.944Z,101472.28
2022-10-20T10:44:28.528Z,101473.47
2022-10-20T10:47:15.892Z,101473.19
2022-10-20T10:50:19.252Z,101471.63
2022-10-20T10:53:20.655Z,101475.84
2022-10-20T10:56:27.955Z,101469.16
2022-10-20T10:59:12.553Z,101460.56
2022-10-20T11:01:52.414Z,101458.53
2022-10-20T11:05:06.068Z,101458.41
2022-10-20T11:07:53.740Z,101455.09
2022-10-20T11:10:29.214Z,101458.59
2022-10-20T11:13:44.872Z,101458.94
2022-10-20T11:16:44.174Z,101454.47
2022-10-20T11:19:47.298Z,101450.09
2022-10-20T11:22:29.088Z,101441.88
2022-10-20T11:25:31.529Z,101441.72
2022-10-20T11:27:59.146Z,101437.38
2022-10-20T11:30:27.515Z,101429.16
2022-10-20T11:33:19.161Z,101426.16
2022-10-20T11:35:53.303Z,101423.84
2022-10-20T11:38:56.239Z,101421.72
2022-10-20T11:41:44.613Z,101417.09
2022-10-20T11:44:24.373Z,101413.41
2022-10-20T11:47:03.577Z,101408.91
2022-10-20T11:49:33.782Z,101409.75
2022-10-20T11:52:47.022Z,101404.84
2022-10-20T11:55:48.564Z,101396.88
2022-10-20T11:58:46.033Z,101406.38
2022-10-20T12:01:50.189Z,101401.28
2022-10-20T12:05:09.902Z,101394.34
2022-10-20T12:08:28.179Z,101395.03
2022-10-20T12:11:17.973Z,101387.03
2022-10-20T12:14:14.879Z,101390.47
2022-10-20T12:16:54.110Z,101388.47
2022-10-20T12:19:22.506Z,101389.53
2022-10-20T12:22:14.902Z,101390.41
2022-10-20T12:25:01.704Z,101387.47
2022-10-20T12:27:28.984Z,101383.31
2022-10-20T12:30:02.591Z,101389.38
2022-10-20T12:32:29.423Z,101379.31
2022-10-20T12:35:21.354Z,101384.22
2022-10-20T12:38:04.269Z,101382.03
2022-10-20T12:40:55.463Z,101376.81
2022-10-20T12:43:33.533Z,101381.44
2022-10-20T12:46:31.451Z,101373.69
2022-10-20T12:49:06.687Z,101371.09
2022-10-20T12:51:53.039Z,101374.94
2022-10-20T12:54:48.703Z,101374.31
2022-10-20T12:57:41.698Z,101373.31
2022-10-20T13:00:28.870Z,101358.94
2022-10-20T13:02:58.727Z,101364.13
2022-10-20T13:05:42.549Z,101354.00
2022-10-20T13:08:21.158Z,101356.22
2022-10-20T13:10:49.408Z,101367.53
2022-10-20T13:13:19.269Z,101365.88
2022-10-20T13:15:47.469Z,101365.84
2022-10-20T13:18:20.369Z,101364.34
2022-10-20T13:20:53.803Z,101353.94
2022-10-20T13:23:37.456Z,101364.25
2022-10-20T13:26:36.305Z,101362.69
2022-10-20T13:29:17.121Z,101368.75
2022-10-20T13:32:31.926Z,101368.72
2022-10-20T13:35:08.028Z,101368.44
2022-10-20T13:37:46.771Z,101364.16
2022-10-20T13:40:31.086Z,101370.34
2022-10-20T13:43:15.929Z,101366.38
2022-10-20T13:45:56.939Z,101362.72
2022-10-20T13:49:20.654Z,101357.22
2022-10-20T13:51:56.961Z,101352.69
2022-10-20T13:54:31.554Z,101353.69
2022-10-20T13:56:58.967Z,101347.94
2022-10-20T13:59:29.077Z,101356.13
2022-10-20T14:02:31.410Z,101349.97
2022-10-20T14:05:12.933Z,101338.84
2022-10-20T14:07:42.924Z,101344.91
2022-10-20T14:10:52.463Z,101340.34
2022-10-20T14:13:24.651Z,101338.03
2022-10-20T14:15:56.539Z,101340.50
2022-10-20T14:18:39.136Z,101339.44
2022-10-20T14:21:17.607Z,101326.31
2022-10-20T14:23:47.005Z,101340.25
2022-10-20T14:26:18.990Z,101334.53
2022-10-20T14:28:48.694Z,101334.41
2022-10-20T14:31:16.235Z,101323.25
2022-10-20T14:33:46.102Z,101322.22
2022-10-20T14:36:28.944Z,101321.56
2022-10-20T14:39:01.210Z,101324.28
2022-10-20T14:41:35.099Z,101316.66
2022-10-20T14:44:12.187Z,101317.06
2022-10-20T14:46:47.839Z,101317.41
2022-10-20T14:49:19.294Z,101316.34
2022-10-20T14:52:00.263Z,101315.59
2022-10-20T14:54:39.519Z,101310.97
2022-10-20T14:57:09.211Z,101312.28
2022-10-20T15:00:04.597Z,101305.25
2022-10-20T15:02:42.653Z,101299.59
2022-10-20T15:05:42.399Z,101296.69
2022-10-20T15:08:18.397Z,101297.63
2022-10-20T15:10:46.051Z,101289.91
2022-10-20T15:13:31.534Z,101283.19
2022-10-20T15:16:04.521Z,101289.50
2022-10-20T15:18:33.452Z,101286.31
2022-10-20T15:21:02.305Z,101289.22
2022-10-20T15:23:29.727Z,101287.88
2022-10-20T15:26:10.500Z,101302.19
2022-10-20T15:28:45.576Z,101285.75
2022-10-20T15:31:26.766Z,101288.19
2022-10-20T15:33:55.707Z,101282.63
2022-10-20T15:36:33.881Z,101285.53
2022-10-20T15:39:01.968Z,101282.06
2022-10-20T15:41:33.437Z,101276.78
2022-10-20T15:44:15.452Z,101285.75
2022-10-20T15:46:44.875Z,101286.38
2022-10-20T15:49:12.987Z,101290.78
2022-10-20T15:51:44.248Z,101293.88
2022-10-20T15:54:21.153Z,101288.47
2022-10-20T15:56:48.476Z,101286.50
2022-10-20T15:59:15.414Z,101281.91
2022-10-20T16:01:42.397Z,101278.78
2022-10-20T16:04:31.346Z,101288.13
2022-10-20T16:07:02.578Z,101296.41
2022-10-20T16:09:30.339Z,101287.00
2022-10-20T16:11:57.268Z,101290.41
2022-10-20T16:14:24.242Z,101287.00
2022-10-20T16:16:51.298Z,101289.16
2022-10-20T16:19:18.203Z,101280.66
2022-10-20T16:21:45.137Z,101284.09
2022-10-20T16:24:12.058Z,101279.50
2022-10-20T16:26:39.018Z,101279.38
2022-10-20T16:29:05.939Z,101287.50
2022-10-20T16:31:32.909Z,101295.38
2022-10-20T16:34:00.495Z,101292.16
2022-10-20T16:36:27.633Z,101289.72
2022-10-20T16:38:56.862Z,101298.56
2022-10-20T16:41:24.024Z,101298.25
2022-10-20T16:43:50.997Z,101298.63
2022-10-20T16:46:18.214Z,101292.41
2022-10-20T16:48:48.034Z,101294.34
2022-10-20T16:51:16.068Z,101290.53
2022-10-20T16:53:43.232Z,101293.75
2022-10-20T16:56:10.718Z,101293.56
2022-10-20T16:58:37.653Z,101285.44
2022-10-20T17:01:08.788Z,101293.97
2022-10-20T17:06:19.270Z,101288.28
2022-10-20T17:08:47.115Z,101294.44
2022-10-20T17:11:21.683Z,101297.66
2022-10-20T17:13:49.060Z,101292.38
2022-10-20T17:16:30.061Z,101290.88
2022-10-20T17:18:59.185Z,101290.16
2022-10-20T17:21:28.154Z,101282.56
2022-10-20T17:23:55.230Z,101277.53
2022-10-20T17:26:25.003Z,101288.28
2022-10-20T17:29:03.059Z,101289.22
2022-10-20T17:31:30.460Z,101287.75
2022-10-20T17:33:59.223Z,101293.41
2022-10-20T17:36:28.500Z,101288.25
2022-10-20T17:39:02.535Z,101286.91
2022-10-20T17:41:30.302Z,101281.91
2022-10-20T17:44:04.111Z,101285.97
2022-10-20T17:46:31.963Z,101292.25
2022-10-20T17:49:01.551Z,101285.47
2022-10-20T17:51:31.921Z,101292.34
2022-10-20T17:54:01.696Z,101282.66
2022-10-20T17:56:32.036Z,101287.72
2022-10-20T17:59:00.636Z,101289.94
2022-10-20T18:01:34.575Z,101285.81
2022-10-20T18:04:09.836Z,101282.72
2022-10-20T18:06:38.141Z,101280.09
2022-10-20T18:09:11.050Z,101286.22
2022-10-20T18:11:40.950Z,101279.78
2022-10-20T18:14:07.915Z,101290.06
2022-10-20T18:16:37.996Z,101282.56
2022-10-20T18:19:06.133Z,101281.44
2022-10-20T18:21:33.892Z,101281.22
2022-10-20T18:24:05.042Z,101287.59
2022-10-20T18:26:35.308Z,101282.69
2022-10-20T18:29:06.017Z,101276.25
2022-10-20T18:31:35.061Z,101276.00
2022-10-20T18:34:07.128Z,101282.28
2022-10-20T18:36:39.134Z,101280.16
2022-10-20T18:39:10.055Z,101276.69
2022-10-20T18:41:40.551Z,101282.63
2022-10-20T18:44:14.037Z,101283.19
2022-10-20T18:46:42.533Z,101287.16
2022-10-20T18:49:12.726Z,101283.44
2022-10-20T18:51:40.536Z,101284.63
2022-10-20T18:54:09.182Z,101296.22
2022-10-20T18:56:36.555Z,101285.50
2022-10-20T18:59:08.999Z,101276.53
2022-10-20T19:01:38.791Z,101284.88
2022-10-20T19:04:07.530Z,101275.59
2022-10-20T19:06:44.387Z,101269.63
2022-10-20T19:09:15.716Z,101282.63
2022-10-20T19:11:43.849Z,101291.59
2022-10-20T19:14:11.695Z,101283.16
2022-10-20T19:16:41.803Z,101291.06
2022-10-20T19:19:09.669Z,101299.75
2022-10-20T19:21:37.099Z,101291.97
2022-10-20T19:24:30.276Z,101296.47
2022-10-20T19:27:24.682Z,101286.03
2022-10-20T19:29:45.044Z,101284.72
2022-10-20T19:32:12.542Z,101286.00
2022-10-20T19:34:41.098Z,101284.59
2022-10-20T19:37:09.057Z,101281.44
2022-10-20T19:39:40.023Z,101277.63
2022-10-20T19:42:08.594Z,101284.38
2022-10-20T19:44:36.334Z,101278.03
2022-10-20T19:47:04.955Z,101277.38
2022-10-20T19:49:32.110Z,101282.63
2022-10-20T19:51:59.178Z,101270.75
2022-10-20T19:54:26.231Z,101267.38
2022-10-20T19:56:53.205Z,101254.44
2022-10-20T19:59:20.414Z,101257.28
2022-10-20T20:01:49.645Z,101260.59
2022-10-20T20:04:16.619Z,101268.53
2022-10-20T20:06:43.602Z,101276.78
2022-10-20T20:09:12.103Z,101268.22
2022-10-20T20:11:39.257Z,101266.72
2022-10-20T20:14:18.410Z,101255.94
2022-10-20T20:16:46.686Z,101257.56
2022-10-20T20:19:16.457Z,101243.94
2022-10-20T20:21:44.192Z,101244.97
2022-10-20T20:24:12.826Z,101250.50
2022-10-20T20:26:39.900Z,101253.56
2022-10-20T20:29:06.885Z,101254.94
2022-10-20T20:31:34.013Z,101253.84
2022-10-20T20:34:01.591Z,101254.66
2022-10-20T20:36:29.159Z,101250.31
2022-10-20T20:38:58.342Z,101245.88
2022-10-20T20:41:28.003Z,101242.69
2022-10-20T20:43:55.296Z,101245.66
2022-10-20T20:46:24.245Z,101241.69
2022-10-20T20:48:51.725Z,101230.63
2022-10-20T20:51:18.914Z,101236.63
2022-10-20T20:53:45.857Z,101234.06
2022-10-20T20:56:15.729Z,101222.63
2022-10-20T20:58:49.018Z,101223.47
2022-10-20T21:01:22.066Z,101226.34
2022-10-20T21:03:57.895Z,101225.72
2022-10-20T21:06:33.690Z,101225.34
2022-10-20T21:09:01.469Z,101235.94
2022-10-20T21:11:28.595Z,101225.69
2022-10-20T21:13:57.549Z,101222.34
2022-10-20T21:16:26.272Z,101224.22
2022-10-20T21:18:57.215Z,101212.78
2022-10-20T21:21:28.113Z,101220.22
2022-10-20T21:23:56.899Z,101212.03
2022-10-20T21:26:24.267Z,101200.75
2022-10-20T21:28:51.541Z,101189.28
2022-10-20T21:31:22.163Z,101193.88
2022-10-20T21:34:05.675Z,101192.44
2022-10-20T21:36:37.857Z,101192.44
2022-10-20T21:39:07.749Z,101193.25
2022-10-20T21:41:35.934Z,101198.47
2022-10-20T21:44:06.530Z,101192.53
2022-10-20T21:46:36.991Z,101199.22
2022-10-20T21:49:07.816Z,101199.72
2022-10-20T21:51:38.617Z,101197.97
2022-10-20T21:54:10.181Z,101190.69
2022-10-20T21:56:41.200Z,101179.53
2022-10-20T21:59:15.568Z,101182.69
2022-10-20T22:01:42.506Z,101191.44
2022-10-20T22:04:09.447Z,101183.69
2022-10-20T22:06:38.449Z,101185.22
2022-10-20T22:09:06.764Z,101178.59
2022-10-20T22:11:40.964Z,101178.91
2022-10-20T22:14:07.979Z,101172.13
2022-10-20T22:16:39.144Z,101178.63
2022-10-20T22:19:13.083Z,101177.97
2022-10-20T22:21:43.667Z,101173.88
2022-10-20T22:24:10.799Z,101160.03
2022-10-20T22:26:38.666Z,101158.00
2022-10-20T22:29:09.566Z,101143.91
2022-10-20T22:31:38.821Z,101154.50
2022-10-20T22:34:06.809Z,101146.91
2022-10-20T22:36:33.861Z,101150.19
2022-10-20T22:39:00.932Z,101144.31
2022-10-20T22:41:28.047Z,101141.59
2022-10-20T22:43:54.963Z,101136.56
2022-10-20T22:46:21.889Z,101140.78
2022-10-20T22:48:48.979Z,101123.22
2022-10-20T22:51:16.560Z,101122.13
2022-10-20T22:53:43.857Z,101135.41
2022-10-20T22:56:14.891Z,101122.94
2022-10-20T22:58:42.506Z,101131.47
2022-10-20T23:01:19.238Z,101143.03
2022-10-20T23:03:47.356Z,101138.47
2022-10-20T23:06:24.651Z,101135.56
2022-10-20T23:08:55.013Z,101134.47
2022-10-20T23:11:22.131Z,101127.47
2022-10-20T23:13:51.029Z,101130.97
2022-10-20T23:16:18.959Z,101137.28
2022-10-20T23:18:46.342Z,101124.75
2022-10-20T23:21:14.215Z,101118.63
2022-10-20T23:23:41.531Z,101119.53
2022-10-20T23:26:09.798Z,101121.72
2022-10-20T23:28:37.922Z,101130.19
2022-10-20T23:31:20.702Z,101125.97
2022-10-20T23:33:50.065Z,101132.72
2022-10-20T23:36:17.596Z,101133.72
2022-10-20T23:38:46.289Z,101129.28
2022-10-20T23:41:13.635Z,101134.31
2022-10-20T23:43:40.851Z,101127.47
2022-10-20T23:46:08.708Z,101134.53
2022-10-20T23:48:35.905Z,101146.03
2022-10-20T23:51:02.911Z,101142.22
2022-10-20T23:53:30.456Z,101141.88
2022-10-20T23:55:57.395Z,101145.81
2022-10-20T23:58:24.424Z,101137.16
